Time;durP1;ratioP1;P1;durP2;ratioP2;P2;SDS_P1;SDS_P2;PMS_P1;PMS_P2;Temp;Humidity;BMP_temperature;BMP_pressure;BME280_temperature;BME280_humidity;BME280_pressure;Samples;Min_cycle;Max_cycle;Signal;HPM_P1;HPM_P2
2022/12/07 00:01:28;;;;;;;49.30;28.35;;;;;;;3.46;100.00;100937.75;4975104;28;20077;-72
2022/12/07 00:04:05;;;;;;;65.57;33.75;;;;;;;3.21;100.00;100917.25;4975264;28;20022;-72
2022/12/07 00:06:33;;;;;;;65.00;31.35;;;;;;;3.34;100.00;100927.09;4975409;28;20077;-73
2022/12/07 00:08:58;;;;;;;56.75;31.73;;;;;;;3.33;100.00;100915.53;4967727;28;20041;-72
2022/12/07 00:11:24;;;;;;;60.60;32.28;;;;;;;3.49;100.00;100910.75;4976289;28;20113;-72
2022/12/07 00:13:55;;;;;;;46.45;26.38;;;;;;;3.71;100.00;100903.81;4983771;28;20019;-72
2022/12/07 00:16:22;;;;;;;53.90;28.30;;;;;;;3.57;100.00;100901.31;4967467;28;20455;-73
2022/12/07 00:18:48;;;;;;;58.58;29.80;;;;;;;3.61;100.00;100902.81;4966899;28;20026;-72
2022/12/07 00:21:19;;;;;;;62.05;31.30;;;;;;;3.56;100.00;100888.91;4975346;28;20073;-72
2022/12/07 00:23:47;;;;;;;49.13;27.83;;;;;;;3.59;100.00;100884.19;4967815;28;20030;-73
2022/12/07 00:26:15;;;;;;;60.08;30.67;;;;;;;3.65;100.00;100872.13;4970744;28;20515;-73
2022/12/07 00:28:44;;;;;;;58.92;30.25;;;;;;;3.51;100.00;100879.38;4980871;28;20027;-72
2022/12/07 00:31:11;;;;;;;58.47;30.15;;;;;;;3.49;100.00;100884.00;4969212;28;20022;-72
2022/12/07 00:33:41;;;;;;;50.97;27.80;;;;;;;3.56;100.00;100884.38;4979111;28;20018;-73
2022/12/07 00:36:09;;;;;;;60.40;31.70;;;;;;;3.53;100.00;100871.25;4980999;28;20025;-72
2022/12/07 00:38:36;;;;;;;58.58;31.35;;;;;;;3.52;100.00;100873.06;4970156;28;20113;-72
2022/12/07 00:41:09;;;;;;;55.85;30.13;;;;;;;3.59;100.00;100872.63;4975522;28;20030;-72
2022/12/07 00:43:34;;;;;;;52.60;27.27;;;;;;;3.56;100.00;100867.47;4980946;28;20081;-73
2022/12/07 00:46:00;;;;;;;52.55;28.98;;;;;;;3.60;100.00;100868.97;4982041;28;20030;-72
2022/12/07 00:48:25;;;;;;;51.53;26.90;;;;;;;3.62;100.00;100867.03;4982128;28;20130;-73
2022/12/07 00:50:51;;;;;;;48.83;26.45;;;;;;;3.49;100.00;100857.22;4981126;28;20041;-73
2022/12/07 00:53:16;;;;;;;51.35;27.40;;;;;;;3.51;100.00;100857.94;4973552;28;20023;-73
2022/12/07 00:55:42;;;;;;;49.20;26.73;;;;;;;3.56;100.00;100854.94;4982326;28;20379;-73
2022/12/07 00:58:08;;;;;;;54.70;25.55;;;;;;;3.47;100.00;100851.13;4977710;28;20053;-73
2022/12/07 01:00:36;;;;;;;50.35;26.90;;;;;;;3.41;100.00;100838.22;4980152;28;20060;-72
2022/12/07 01:03:02;;;;;;;54.08;27.83;;;;;;;3.49;100.00;100835.81;4979012;28;20038;-75
2022/12/07 01:05:27;;;;;;;49.38;25.75;;;;;;;3.45;100.00;100839.66;4970063;28;20118;-75
2022/12/07 01:07:52;;;;;;;44.92;24.50;;;;;;;3.57;100.00;100835.22;4977364;28;20022;-73
2022/12/07 01:10:18;;;;;;;44.72;22.55;;;;;;;3.64;100.00;100843.66;4967720;28;20031;-73
2022/12/07 01:12:43;;;;;;;52.88;25.65;;;;;;;3.59;100.00;100837.81;4974487;28;20522;-73
2022/12/07 01:15:09;;;;;;;43.97;22.83;;;;;;;3.54;100.00;100838.16;4975489;28;20026;-73
2022/12/07 01:17:35;;;;;;;46.47;23.92;;;;;;;3.43;100.00;100830.91;4969038;28;20034;-73
2022/12/07 01:20:01;;;;;;;47.25;24.50;;;;;;;3.47;100.00;100824.38;4993621;28;20094;-75
2022/12/07 01:22:27;;;;;;;45.50;23.25;;;;;;;3.49;100.00;100825.09;4957353;28;20022;-73
2022/12/07 01:24:52;;;;;;;43.03;21.08;;;;;;;3.62;100.00;100829.53;4978411;28;20032;-73
2022/12/07 01:27:18;;;;;;;41.58;21.65;;;;;;;3.70;100.00;100821.78;4971215;28;20033;-73
2022/12/07 01:29:43;;;;;;;42.88;22.77;;;;;;;3.64;100.00;100830.28;4975522;28;20057;-73
2022/12/07 01:32:08;;;;;;;41.20;21.33;;;;;;;3.60;100.00;100820.78;4974477;28;20090;-73
2022/12/07 01:34:34;;;;;;;38.65;21.02;;;;;;;3.44;100.00;100821.06;4975143;28;20072;-73
2022/12/07 01:36:59;;;;;;;48.42;21.02;;;;;;;3.44;100.00;100827.25;4969980;28;20114;-75
2022/12/07 01:39:25;;;;;;;42.33;19.58;;;;;;;3.54;100.00;100830.97;4965857;28;20031;-73
2022/12/07 01:41:51;;;;;;;37.05;20.90;;;;;;;3.51;100.00;100833.84;4970537;28;20096;-73
2022/12/07 01:44:31;;;;;;;46.45;21.52;;;;;;;3.52;100.00;100829.34;4971641;28;20027;-76
2022/12/07 01:47:03;;;;;;;40.50;20.75;;;;;;;3.39;100.00;100813.38;4969467;28;20031;-73
2022/12/07 01:49:34;;;;;;;47.45;22.88;;;;;;;3.28;100.00;100826.69;4975774;28;20033;-75
2022/12/07 01:52:22;;;;;;;49.08;22.27;;;;;;;3.46;100.00;100824.50;4966504;28;20129;-73
2022/12/07 01:54:53;;;;;;;48.35;23.73;;;;;;;3.46;100.00;100820.00;4975453;28;20022;-73
2022/12/07 01:57:19;;;;;;;44.33;23.58;;;;;;;3.31;100.00;100814.91;4960022;28;20035;-73
2022/12/07 01:59:48;;;;;;;51.00;25.27;;;;;;;3.32;100.00;100822.81;4955946;28;20058;-73
2022/12/07 02:02:19;;;;;;;52.60;26.55;;;;;;;3.31;100.00;100826.44;4963475;28;20046;-73
2022/12/07 02:04:46;;;;;;;45.08;24.17;;;;;;;3.21;100.00;100820.09;4975881;28;20030;-73
2022/12/07 02:07:11;;;;;;;55.05;25.40;;;;;;;3.21;100.00;100820.09;4973661;28;20030;-74
2022/12/07 02:09:37;;;;;;;44.90;22.83;;;;;;;3.26;100.00;100812.59;4972853;28;20030;-73
2022/12/07 02:12:03;;;;;;;47.05;23.33;;;;;;;3.18;100.00;100810.44;4974301;28;20019;-73
2022/12/07 02:14:29;;;;;;;53.15;25.23;;;;;;;3.26;100.00;100808.09;4959321;28;20109;-73
2022/12/07 02:17:07;;;;;;;38.35;21.40;;;;;;;3.28;100.00;100805.28;4975354;28;20121;-73
2022/12/07 02:20:07;;;;;;;48.75;23.00;;;;;;;3.12;100.00;100810.03;4975453;28;20019;-73
2022/12/07 02:23:04;;;;;;;48.37;20.03;;;;;;;3.30;100.00;100814.06;4974957;28;20033;-73
2022/12/07 02:25:57;;;;;;;37.83;19.23;;;;;;;3.21;100.00;100820.94;4966815;28;20102;-73
2022/12/07 02:28:35;;;;;;;40.40;17.00;;;;;;;3.08;100.00;100813.94;4976124;28;20046;-73
2022/12/07 02:31:11;;;;;;;29.33;15.15;;;;;;;3.10;100.00;100806.63;4975800;28;20022;-73
2022/12/07 02:33:45;;;;;;;36.55;15.45;;;;;;;3.23;100.00;100807.44;4975021;28;20034;-73
2022/12/07 02:36:36;;;;;;;33.80;15.07;;;;;;;3.10;100.00;100802.13;4976181;28;20029;-73
2022/12/07 02:39:11;;;;;;;26.77;12.40;;;;;;;3.22;100.00;100805.75;4955688;28;20085;-75
2022/12/07 02:41:43;;;;;;;29.35;12.10;;;;;;;3.19;100.00;100805.94;4967410;28;20054;-73
2022/12/07 02:44:19;;;;;;;20.98;10.10;;;;;;;3.17;100.00;100802.53;4972069;28;20053;-73
2022/12/07 02:47:14;;;;;;;23.30;10.50;;;;;;;3.16;100.00;100800.84;4958741;28;20026;-73
2022/12/07 02:49:40;;;;;;;25.15;10.18;;;;;;;3.13;100.00;100801.94;4965606;28;20037;-73
2022/12/07 02:52:09;;;;;;;20.83;9.85;;;;;;;3.16;100.00;100800.84;4969049;28;20046;-73
2022/12/07 02:54:34;;;;;;;17.85;9.73;;;;;;;3.15;100.00;100801.81;4959326;28;20042;-73
2022/12/07 02:57:37;;;;;;;23.50;9.23;;;;;;;3.11;100.00;100808.34;4966214;28;20023;-74
2022/12/07 03:00:14;;;;;;;23.40;8.80;;;;;;;2.94;100.00;100818.47;4979231;28;20121;-74
2022/12/07 03:02:51;;;;;;;23.25;7.85;;;;;;;3.01;100.00;100813.50;4971584;28;20039;-74
2022/12/07 03:05:39;;;;;;;15.97;7.10;;;;;;;2.88;100.00;100818.03;4978115;28;20053;-76
2022/12/07 03:08:20;;;;;;;18.93;7.23;;;;;;;2.95;100.00;100814.81;4965841;28;20034;-76
2022/12/07 03:11:09;;;;;;;16.02;5.75;;;;;;;2.91;100.00;100812.47;4981056;28;20029;-76
2022/12/07 03:13:59;;;;;;;11.90;5.67;;;;;;;2.83;100.00;100810.34;4981272;28;20026;-77
2022/12/07 03:16:30;;;;;;;15.80;6.43;;;;;;;2.90;100.00;100806.25;4973133;28;20396;-76
2022/12/07 03:19:01;;;;;;;14.68;6.35;;;;;;;2.92;100.00;100809.66;4973938;28;20057;-76
2022/12/07 03:21:32;;;;;;;12.45;5.90;;;;;;;2.82;100.00;100803.28;4982567;28;20105;-76
2022/12/07 03:24:02;;;;;;;18.02;6.25;;;;;;;2.77;100.00;100800.09;4971493;28;20034;-76
2022/12/07 03:26:33;;;;;;;12.10;5.13;;;;;;;2.75;100.00;100807.38;4977606;28;20034;-76
2022/12/07 03:29:05;;;;;;;15.23;6.10;;;;;;;2.64;100.00;100804.59;4978269;28;20032;-76
2022/12/07 03:31:40;;;;;;;17.42;5.28;;;;;;;2.70;100.00;100806.84;4977940;28;20367;-77
2022/12/07 03:34:13;;;;;;;20.80;5.30;;;;;;;2.62;100.00;100806.53;4977658;28;20033;-76
2022/12/07 03:36:55;;;;;;;11.47;4.43;;;;;;;2.64;100.00;100809.94;4977787;28;20018;-76
2022/12/07 03:39:31;;;;;;;7.80;3.90;;;;;;;2.57;100.00;100814.88;4959239;28;20018;-76
2022/12/07 03:41:59;;;;;;;10.63;4.25;;;;;;;2.50;100.00;100815.41;4966286;28;20117;-76
2022/12/07 03:44:25;;;;;;;12.87;4.00;;;;;;;2.57;100.00;100811.34;4974707;28;20030;-76
2022/12/07 03:47:05;;;;;;;8.07;3.90;;;;;;;2.60;100.00;100811.13;4984644;28;20030;-77
2022/12/07 03:49:46;;;;;;;11.65;3.92;;;;;;;2.45;100.00;100813.06;4969533;28;20026;-76
2022/12/07 03:52:23;;;;;;;12.63;3.42;;;;;;;2.44;100.00;100804.19;4977314;28;20030;-77
2022/12/07 03:55:04;;;;;;;20.17;4.20;;;;;;;2.49;100.00;100811.03;4977590;28;20042;-76
2022/12/07 03:57:31;;;;;;;9.73;3.77;;;;;;;2.42;100.00;100811.47;4965832;28;20014;-76
2022/12/07 04:00:01;;;;;;;13.00;3.27;;;;;;;2.43;100.00;100805.16;4970758;28;20379;-77
2022/12/07 04:02:28;;;;;;;10.40;3.63;;;;;;;2.49;100.00;100811.03;4963887;28;20037;-77
2022/12/07 04:04:55;;;;;;;11.13;3.40;;;;;;;2.38;100.00;100820.66;4976805;28;20022;-76
2022/12/07 04:07:20;;;;;;;7.17;3.10;;;;;;;2.33;100.00;100817.44;4972996;28;20026;-76
2022/12/07 04:09:46;;;;;;;10.30;3.47;;;;;;;2.36;100.00;100817.25;4975364;28;20076;-76
2022/12/07 04:12:11;;;;;;;15.38;3.67;;;;;;;2.30;100.00;100823.00;4962130;28;20030;-76
2022/12/07 04:14:37;;;;;;;8.73;3.37;;;;;;;2.26;100.00;100821.50;4985519;28;20040;-76
2022/12/07 04:17:02;;;;;;;9.10;3.25;;;;;;;2.31;100.00;100818.53;4982566;28;20026;-77
2022/12/07 04:19:34;;;;;;;9.03;3.47;;;;;;;2.19;100.00;100812.19;4976184;28;20529;-76
2022/12/07 04:22:01;;;;;;;21.30;3.60;;;;;;;2.19;100.00;100820.22;4969694;28;20018;-76
2022/12/07 04:24:28;;;;;;;10.40;3.50;;;;;;;2.16;100.00;100810.63;4976916;28;20030;-76
2022/12/07 04:26:53;;;;;;;15.63;4.30;;;;;;;2.21;100.00;100807.59;4983383;28;20058;-76
2022/12/07 04:29:19;;;;;;;11.57;4.07;;;;;;;2.16;100.00;100820.44;4969094;28;20058;-76
2022/12/07 04:31:45;;;;;;;8.37;3.87;;;;;;;2.22;100.00;100819.13;4983919;28;20033;-77
2022/12/07 04:34:11;;;;;;;9.07;4.17;;;;;;;2.19;100.00;100825.56;4969780;28;20487;-77
2022/12/07 04:36:37;;;;;;;8.67;3.87;;;;;;;2.19;100.00;100825.56;4975062;28;20037;-77
2022/12/07 04:39:04;;;;;;;10.80;3.83;;;;;;;2.10;100.00;100824.38;4976302;28;20117;-77
2022/12/07 04:41:29;;;;;;;14.30;4.10;;;;;;;2.06;100.00;100824.69;4976492;28;20105;-76
2022/12/07 04:43:57;;;;;;;10.70;5.17;;;;;;;2.00;100.00;100827.78;4978864;28;20416;-77
2022/12/07 04:46:25;;;;;;;12.97;4.03;;;;;;;2.02;100.00;100826.75;4964216;28;20094;-78
2022/12/07 04:48:52;;;;;;;9.47;4.07;;;;;;;2.03;100.00;100832.94;4975477;28;20049;-76
2022/12/07 04:51:28;;;;;;;16.40;4.00;;;;;;;2.02;100.00;100824.06;4975272;28;20030;-77
2022/12/07 04:53:55;;;;;;;13.40;4.47;;;;;;;1.97;100.00;100828.00;4968528;28;20022;-77
2022/12/07 04:56:21;;;;;;;9.90;4.00;;;;;;;2.00;100.00;100825.09;4975484;28;20479;-77
2022/12/07 04:58:47;;;;;;;10.67;5.00;;;;;;;2.10;100.00;100828.88;4974849;28;20041;-77
2022/12/07 05:01:14;;;;;;;15.13;4.73;;;;;;;2.16;100.00;100828.47;4975237;28;20053;-77
2022/12/07 05:03:40;;;;;;;10.57;3.93;;;;;;;2.11;100.00;100822.56;4974559;28;20065;-76
2022/12/07 05:06:06;;;;;;;16.87;5.33;;;;;;;2.01;100.00;100824.16;4969383;28;20085;-78
2022/12/07 05:08:32;;;;;;;14.07;5.40;;;;;;;1.94;100.00;100822.84;4955687;28;20034;-75
2022/12/07 05:10:58;;;;;;;15.53;5.23;;;;;;;1.98;100.00;100816.34;4955405;28;20077;-75
2022/12/07 05:13:23;;;;;;;18.67;4.70;;;;;;;2.13;100.00;100820.63;4963921;28;20030;-76
2022/12/07 05:15:49;;;;;;;13.43;5.20;;;;;;;2.01;100.00;100829.47;4974725;28;20030;-76
2022/12/07 05:18:15;;;;;;;15.13;5.80;;;;;;;2.03;100.00;100824.91;4967755;28;20034;-75
2022/12/07 05:20:41;;;;;;;17.60;6.07;;;;;;;2.20;100.00;100821.91;4976229;28;20045;-75
2022/12/07 05:23:07;;;;;;;13.50;5.53;;;;;;;2.09;100.00;100820.00;4980713;28;20030;-75
2022/12/07 05:25:32;;;;;;;16.63;5.57;;;;;;;2.12;100.00;100819.78;4974133;28;20160;-76
2022/12/07 05:27:58;;;;;;;16.37;5.97;;;;;;;2.09;100.00;100816.50;4974253;28;20042;-76
2022/12/07 05:30:24;;;;;;;18.50;5.00;;;;;;;2.06;100.00;100814.00;4974570;28;20026;-77
2022/12/07 05:32:50;;;;;;;12.10;5.80;;;;;;;2.07;100.00;100821.06;4970012;28;20427;-75
2022/12/07 05:35:16;;;;;;;13.73;5.40;;;;;;;1.93;100.00;100811.31;4970269;28;20030;-76
2022/12/07 05:37:41;;;;;;;13.07;5.03;;;;;;;1.94;100.00;100814.84;4967989;28;20056;-76
2022/12/07 05:40:08;;;;;;;16.90;6.07;;;;;;;1.90;100.00;100820.41;4974206;28;20041;-76
2022/12/07 05:42:33;;;;;;;18.57;6.10;;;;;;;2.00;100.00;100814.44;4975474;28;20068;-75
2022/12/07 05:44:58;;;;;;;22.20;5.23;;;;;;;1.83;100.00;100824.44;4980969;28;20054;-76
2022/12/07 05:47:24;;;;;;;14.80;5.57;;;;;;;2.09;100.00;100821.84;4973661;28;20027;-76
2022/12/07 05:49:49;;;;;;;10.23;4.83;;;;;;;2.07;100.00;100821.91;4974162;28;20097;-75
2022/12/07 05:52:15;;;;;;;20.47;5.50;;;;;;;2.09;100.00;100824.50;4974110;28;20026;-77
2022/12/07 05:54:40;;;;;;;17.67;6.33;;;;;;;2.02;100.00;100824.06;4974396;28;20037;-76
2022/12/07 05:57:05;;;;;;;16.13;5.93;;;;;;;2.04;100.00;100821.28;4965740;28;20072;-76
2022/12/07 05:59:31;;;;;;;15.90;6.20;;;;;;;2.13;100.00;100815.28;4974049;28;20057;-77
2022/12/07 06:01:59;;;;;;;12.53;5.93;;;;;;;2.07;100.00;100815.72;4973923;28;20088;-76
2022/12/07 06:04:27;;;;;;;18.53;6.03;;;;;;;2.12;100.00;100813.59;4973792;28;20098;-76
2022/12/07 06:06:53;;;;;;;21.53;6.80;;;;;;;2.05;100.00;100817.66;4973736;28;20034;-75
2022/12/07 06:09:21;;;;;;;18.70;6.90;;;;;;;2.11;100.00;100812.75;4969908;28;20026;-76
2022/12/07 06:14:31;;;;;;;15.13;5.90;;;;;;;2.10;100.00;100810.19;5000383;28;20031;-77
2022/12/07 06:16:58;;;;;;;15.87;6.20;;;;;;;2.31;100.00;100814.03;4980411;28;20165;-77
2022/12/07 06:19:23;;;;;;;17.42;6.38;;;;;;;2.17;100.00;100811.47;4973875;28;20026;-78
2022/12/07 06:21:48;;;;;;;10.13;6.00;;;;;;;2.13;100.00;100815.28;4967567;28;20158;-78
2022/12/07 06:24:15;;;;;;;19.00;5.20;;;;;;;2.13;100.00;100809.97;4972856;28;20033;-77
2022/12/07 06:26:41;;;;;;;12.40;5.63;;;;;;;2.22;100.00;100814.69;4974296;28;20022;-77
2022/12/07 06:29:07;;;;;;;19.50;5.43;;;;;;;2.33;100.00;100806.75;4974375;28;20088;-77
2022/12/07 06:31:32;;;;;;;11.53;5.07;;;;;;;2.23;100.00;100810.19;4977421;28;20033;-76
2022/12/07 06:34:08;;;;;;;19.30;5.53;;;;;;;2.26;100.00;100810.81;4974391;28;20122;-77
2022/12/07 06:36:34;;;;;;;16.50;4.87;;;;;;;2.20;100.00;100816.59;4978843;28;20054;-77
2022/12/07 06:38:59;;;;;;;13.30;5.47;;;;;;;2.23;100.00;100816.38;4969635;28;20112;-77
2022/12/07 06:41:24;;;;;;;12.83;5.10;;;;;;;2.22;100.00;100809.34;4968670;28;20034;-77
2022/12/07 06:43:50;;;;;;;14.37;4.83;;;;;;;2.12;100.00;100808.25;4977644;28;20062;-77
2022/12/07 06:46:16;;;;;;;18.53;5.83;;;;;;;2.29;100.00;100815.97;4977404;28;20077;-79
2022/12/07 06:48:42;;;;;;;18.73;5.43;;;;;;;2.31;100.00;100807.84;4977729;28;20034;-77
2022/12/07 06:51:08;;;;;;;14.27;4.90;;;;;;;2.40;100.00;100810.69;4977676;28;20075;-77
2022/12/07 06:53:34;;;;;;;9.47;5.07;;;;;;;2.58;100.00;100805.03;4977280;28;20372;-77
2022/12/07 06:56:00;;;;;;;18.03;4.33;;;;;;;2.49;100.00;100805.69;4972371;28;20023;-76
2022/12/07 06:58:25;;;;;;;13.50;4.47;;;;;;;2.48;100.00;100807.53;4958157;28;20037;-77
2022/12/07 07:00:50;;;;;;;22.60;4.77;;;;;;;2.39;100.00;100817.00;4974016;28;20023;-77
2022/12/07 07:03:16;;;;;;;16.67;4.30;;;;;;;2.45;100.00;100811.25;4972766;28;20031;-76
2022/12/07 07:05:43;;;;;;;12.57;4.77;;;;;;;2.49;100.00;100811.03;4976320;28;20129;-78
2022/12/07 07:08:09;;;;;;;10.23;4.77;;;;;;;2.55;100.00;100806.13;4976611;28;20037;-75
2022/12/07 07:10:35;;;;;;;13.03;5.30;;;;;;;2.54;100.00;100808.88;4971289;28;20027;-76
2022/12/07 07:13:00;;;;;;;21.13;4.00;;;;;;;2.37;100.00;100818.94;4983137;28;20037;-76
2022/12/07 07:15:25;;;;;;;10.27;4.30;;;;;;;2.41;100.00;100816.91;4971942;28;20076;-76
2022/12/07 07:17:51;;;;;;;11.33;4.70;;;;;;;2.41;100.00;100809.78;4973725;28;20062;-76
2022/12/07 07:20:17;;;;;;;10.80;4.37;;;;;;;2.44;100.00;100814.88;4976743;28;20030;-77
2022/12/07 07:22:42;;;;;;;8.77;3.80;;;;;;;2.37;100.00;100813.59;4979600;28;20160;-77
2022/12/07 07:25:07;;;;;;;14.67;3.83;;;;;;;2.64;100.00;100809.94;4981973;28;20030;-75
2022/12/07 07:27:33;;;;;;;10.43;3.40;;;;;;;2.69;100.00;100807.81;4977294;28;20034;-75
2022/12/07 07:29:58;;;;;;;15.40;4.30;;;;;;;2.40;100.00;100805.34;4982991;28;20040;-76
2022/12/07 07:32:24;;;;;;;20.03;3.63;;;;;;;2.35;100.00;100804.84;4975296;28;20030;-74
2022/12/07 07:34:49;;;;;;;13.50;3.73;;;;;;;2.38;100.00;100815.31;4975982;28;20113;-74
2022/12/07 07:37:14;;;;;;;11.23;3.73;;;;;;;2.27;100.00;100817.88;4969763;28;20022;-74
2022/12/07 07:39:40;;;;;;;9.87;3.97;;;;;;;2.50;100.00;100818.94;4973614;28;20030;-73
2022/12/07 07:42:07;;;;;;;14.03;4.03;;;;;;;2.41;100.00;100819.56;4956360;28;20038;-78
2022/12/07 07:44:33;;;;;;;16.20;3.43;;;;;;;2.41;100.00;100839.16;4962595;28;20049;-75
2022/12/07 07:46:58;;;;;;;15.13;3.47;;;;;;;2.51;100.00;100835.84;4958214;28;20027;-74
2022/12/07 07:49:24;;;;;;;7.45;2.92;;;;;;;2.60;100.00;100833.34;4961363;28;20038;-76
2022/12/07 07:51:49;;;;;;;16.60;3.40;;;;;;;2.60;100.00;100829.81;4952304;28;20153;-74
2022/12/07 07:54:15;;;;;;;9.00;3.30;;;;;;;2.56;100.00;100841.72;4975323;28;20085;-76
2022/12/07 07:56:40;;;;;;;15.33;3.70;;;;;;;2.58;100.00;100842.44;4971465;28;20062;-75
2022/12/07 07:59:06;;;;;;;20.17;3.13;;;;;;;2.62;100.00;100833.25;4998997;28;20021;-77
2022/12/07 08:01:31;;;;;;;8.17;2.83;;;;;;;2.56;100.00;100839.03;4968090;28;20034;-75
2022/12/07 08:03:56;;;;;;;11.33;2.53;;;;;;;2.56;100.00;100831.88;4975417;28;20030;-75
2022/12/07 08:06:22;;;;;;;12.63;2.43;;;;;;;2.62;100.00;100827.91;4955111;28;20078;-74
2022/12/07 08:08:47;;;;;;;9.20;2.88;;;;;;;2.64;100.00;100828.66;4966413;28;20061;-75
2022/12/07 08:11:12;;;;;;;15.52;3.20;;;;;;;2.62;100.00;100833.25;4965889;28;20034;-77
2022/12/07 08:13:38;;;;;;;12.07;2.03;;;;;;;2.65;100.00;100838.38;4972523;28;20030;-73
2022/12/07 08:16:09;;;;;;;10.13;2.97;;;;;;;2.44;100.00;100830.91;4979520;28;20034;-76
2022/12/07 08:18:36;;;;;;;15.73;3.08;;;;;;;2.68;100.00;100838.19;4980547;28;20030;-73
2022/12/07 08:21:03;;;;;;;11.43;2.87;;;;;;;2.65;100.00;100833.03;4961635;28;20254;-74
2022/12/07 08:23:29;;;;;;;14.68;2.47;;;;;;;2.81;100.00;100828.31;4975692;28;20022;-76
2022/12/07 08:25:54;;;;;;;12.07;2.42;;;;;;;2.95;100.00;100841.56;4971033;28;20015;-74
2022/12/07 08:28:20;;;;;;;15.77;2.90;;;;;;;2.77;100.00;100832.16;4958827;28;20480;-73
2022/12/07 08:30:45;;;;;;;6.40;2.47;;;;;;;3.06;100.00;100837.22;4965725;28;20496;-74
2022/12/07 08:33:10;;;;;;;6.43;2.08;;;;;;;3.13;100.00;100833.16;4977239;28;20077;-75
2022/12/07 08:35:36;;;;;;;19.98;2.83;;;;;;;3.16;100.00;100827.59;4960248;28;20536;-78
2022/12/07 08:38:03;;;;;;;8.57;2.67;;;;;;;3.11;100.00;100829.72;4968494;28;20480;-74
2022/12/07 08:40:29;;;;;;;17.88;3.13;;;;;;;2.98;100.00;100833.28;4961231;28;20026;-74
2022/12/07 08:42:54;;;;;;;11.32;2.63;;;;;;;3.01;100.00;100828.72;4960833;28;20061;-74
2022/12/07 08:45:21;;;;;;;13.77;3.13;;;;;;;2.89;100.00;100842.00;4968428;28;20088;-76
2022/12/07 08:48:02;;;;;;;19.42;2.60;;;;;;;3.14;100.00;100834.88;4968559;28;20041;-76
2022/12/07 08:50:28;;;;;;;11.75;2.55;;;;;;;3.16;100.00;100832.94;4966171;28;20044;-77
2022/12/07 08:52:57;;;;;;;16.15;2.83;;;;;;;3.21;100.00;100834.31;4970078;28;20038;-76
2022/12/07 08:55:23;;;;;;;19.95;3.03;;;;;;;3.37;100.00;100831.34;4967275;28;20388;-74
2022/12/07 08:57:49;;;;;;;16.15;3.55;;;;;;;3.29;100.00;100831.06;4950487;28;20098;-79
2022/12/07 09:00:16;;;;;;;12.80;2.25;;;;;;;3.33;100.00;100835.25;4953152;28;20077;-73
2022/12/07 09:02:43;;;;;;;17.13;2.40;;;;;;;3.40;100.00;100825.78;4965793;28;20034;-73
2022/12/07 09:05:09;;;;;;;12.55;2.47;;;;;;;3.40;100.00;100836.50;4955230;28;20031;-76
2022/12/07 09:07:35;;;;;;;9.25;1.85;;;;;;;3.21;100.00;100842.34;4953560;28;20506;-77
2022/12/07 09:10:01;;;;;;;23.48;3.42;;;;;;;3.10;100.00;100839.59;4959370;28;20068;-77
2022/12/07 09:12:26;;;;;;;13.93;2.97;;;;;;;3.29;100.00;100843.59;4952626;28;20058;-75
2022/12/07 09:14:52;;;;;;;23.20;3.83;;;;;;;3.15;100.00;100841.94;4964607;28;20033;-74
2022/12/07 09:17:17;;;;;;;17.42;3.45;;;;;;;3.29;100.00;100844.44;4988689;28;20399;-74
2022/12/07 09:19:43;;;;;;;13.77;3.42;;;;;;;3.41;100.00;100832.84;4973785;28;20034;-74
2022/12/07 09:22:08;;;;;;;19.27;3.65;;;;;;;3.54;100.00;100836.31;4973073;28;20030;-77
2022/12/07 09:24:34;;;;;;;13.57;4.03;;;;;;;3.69;100.00;100838.81;4964555;28;20062;-74
2022/12/07 09:26:59;;;;;;;13.18;2.92;;;;;;;3.66;100.00;100836.38;4989167;28;20471;-76
2022/12/07 09:29:25;;;;;;;13.75;2.28;;;;;;;3.71;100.00;100844.91;4969660;28;20026;-75
2022/12/07 09:31:53;;;;;;;15.13;2.40;;;;;;;3.61;100.00;100838.53;4966496;28;20041;-76
2022/12/07 09:34:19;;;;;;;11.00;2.75;;;;;;;3.75;100.00;100841.03;4974157;28;20030;-78
2022/12/07 09:36:45;;;;;;;13.15;2.17;;;;;;;3.61;100.00;100841.22;4972035;28;20037;-77
2022/12/07 09:39:11;;;;;;;21.48;2.60;;;;;;;3.75;100.00;100846.41;4968248;28;20026;-74
2022/12/07 09:41:42;;;;;;;13.98;3.58;;;;;;;3.64;100.00;100835.63;4983635;28;20403;-78
2022/12/07 09:44:13;;;;;;;11.05;2.45;;;;;;;3.65;100.00;100851.59;4974389;28;20039;-74
2022/12/07 09:46:42;;;;;;;18.67;2.75;;;;;;;3.75;100.00;100824.97;4970372;28;20063;-75
2022/12/07 09:49:17;;;;;;;10.57;2.28;;;;;;;3.75;100.00;100841.91;4986134;28;20042;-77
2022/12/07 09:51:43;;;;;;;14.80;2.50;;;;;;;3.64;100.00;100838.31;4963080;28;20400;-77
2022/12/07 09:54:13;;;;;;;14.93;2.35;;;;;;;3.65;100.00;100834.66;4972704;28;20030;-74
2022/12/07 09:56:38;;;;;;;14.88;2.63;;;;;;;3.68;100.00;100829.09;4973931;28;20041;-77
2022/12/07 09:59:15;;;;;;;10.85;2.20;;;;;;;3.76;100.00;100837.38;4974288;28;20046;-74
2022/12/07 10:01:41;;;;;;;16.13;3.10;;;;;;;3.93;100.00;100828.94;4971854;28;20041;-74
2022/12/07 10:04:16;;;;;;;18.08;2.67;;;;;;;3.81;100.00;100828.03;4975805;28;20052;-74
2022/12/07 10:06:42;;;;;;;13.63;2.10;;;;;;;3.97;100.00;100824.19;4963147;28;20038;-79
2022/12/07 10:09:16;;;;;;;10.63;2.33;;;;;;;3.89;100.00;100831.97;4965184;28;20034;-76
2022/12/07 10:12:01;;;;;;;14.07;2.40;;;;;;;3.77;100.00;100825.69;4963064;28;20116;-76
2022/12/07 10:14:29;;;;;;;14.80;2.38;;;;;;;3.83;100.00;100827.91;4965514;28;20406;-76
2022/12/07 10:16:55;;;;;;;14.32;2.42;;;;;;;3.86;100.00;100821.50;4964546;28;20137;-73
2022/12/07 10:19:27;;;;;;;16.02;2.85;;;;;;;4.04;100.00;100826.31;4972666;28;20310;-73
2022/12/07 10:22:22;;;;;;;55.75;3.65;;;;;;;3.94;100.00;100819.09;4961179;28;20066;-73
2022/12/07 10:24:47;;;;;;;19.25;2.55;;;;;;;4.06;100.00;100824.34;4953728;28;20069;-74
2022/12/07 10:27:25;;;;;;;8.38;1.98;;;;;;;4.13;100.00;100813.16;4969393;28;20217;-76
2022/12/07 10:29:52;;;;;;;16.70;3.22;;;;;;;4.08;100.00;100819.72;4972880;28;20088;-74
2022/12/07 10:32:18;;;;;;;20.15;2.92;;;;;;;3.99;100.00;100822.28;4992693;28;20022;-73
2022/12/07 10:34:44;;;;;;;12.63;2.13;;;;;;;4.30;100.00;100820.72;4973527;28;20588;-75
2022/12/07 10:37:12;;;;;;;16.15;2.67;;;;;;;4.00;100.00;100819.47;4986109;28;20560;-74
2022/12/07 10:39:52;;;;;;;17.88;2.42;;;;;;;4.02;100.00;100822.88;4967995;28;20121;-75
2022/12/07 10:42:23;;;;;;;19.02;2.88;;;;;;;3.89;100.00;100815.88;4973239;28;20030;-74
2022/12/07 10:45:05;;;;;;;13.93;2.75;;;;;;;3.82;100.00;100810.16;4960984;28;20271;-76
2022/12/07 10:48:02;;;;;;;14.02;2.70;;;;;;;3.81;100.00;100819.16;4952227;28;20053;-75
2022/12/07 10:50:39;;;;;;;6.90;1.90;;;;;;;3.96;100.00;100817.13;4963254;28;20018;-77
2022/12/07 10:53:20;;;;;;;16.17;2.28;;;;;;;3.70;100.00;100827.13;4966362;28;20034;-75
2022/12/07 10:55:54;;;;;;;15.55;2.15;;;;;;;3.99;100.00;100817.75;4970422;28;20434;-74
2022/12/07 10:58:33;;;;;;;12.35;2.05;;;;;;;4.09;100.00;100815.22;4960599;28;20369;-75
2022/12/07 11:01:14;;;;;;;11.20;2.15;;;;;;;4.02;100.00;100812.16;4984715;28;20030;-76
2022/12/07 11:04:12;;;;;;;19.88;2.53;;;;;;;4.15;100.00;100805.84;4966747;28;20026;-74
2022/12/07 11:06:49;;;;;;;11.57;2.35;;;;;;;4.22;100.00;100801.72;4970045;28;20029;-74
2022/12/07 11:09:58;;;;;;;16.75;2.30;;;;;;;4.03;100.00;100805.81;4961402;28;20037;-74
2022/12/07 11:12:57;;;;;;;13.02;1.88;;;;;;;4.00;100.00;100803.41;4970437;28;20124;-75
2022/12/07 11:15:40;;;;;;;13.07;1.90;;;;;;;4.03;100.00;100797.78;4968191;28;20034;-74
2022/12/07 11:18:20;;;;;;;17.55;2.55;;;;;;;4.04;100.00;100794.16;4981770;28;20080;-74
2022/12/07 11:21:12;;;;;;;19.95;2.30;;;;;;;4.18;100.00;100794.91;4973544;28;20026;-74
2022/12/07 11:24:03;;;;;;;13.00;1.95;;;;;;;4.20;99.47;100798.31;4979265;28;20030;-75
2022/12/07 11:26:41;;;;;;;13.15;2.47;;;;;;;4.16;99.65;100796.84;4980330;28;20026;-76
2022/12/07 11:29:09;;;;;;;15.10;2.08;;;;;;;4.01;99.71;100794.38;4976748;28;20091;-75
2022/12/07 11:31:56;;;;;;;16.65;2.92;;;;;;;4.02;100.00;100785.38;4983461;28;20033;-76